Time;durP1;ratioP1;P1;durP2;ratioP2;P2;SDS_P1;SDS_P2;PMS_P1;PMS_P2;Temp;Humidity;BMP_temperature;BMP_pressure;BME280_temperature;BME280_humidity;BME280_pressure;Samples;Min_cycle;Max_cycle;Signal;HPM_P1;HPM_P2
2022/04/21 00:00:19;;;;;;;;;;;5.80;86.50;;;;;;5037933;28;19917;-77
2022/04/21 00:02:45;;;;;;;;;;;5.80;86.20;;;;;;5021305;28;19917;-76
2022/04/21 00:05:11;;;;;;;;;;;5.80;87.00;;;;;;5021169;28;19924;-77
2022/04/21 00:07:37;;;;;;;;;;;5.80;85.90;;;;;;5020694;28;19916;-77
2022/04/21 00:10:04;;;;;;;;;;;6.20;87.60;;;;;;5021220;28;20265;-77
2022/04/21 00:12:29;;;;;;;;;;;5.70;87.80;;;;;;5037464;28;20007;-78
2022/04/21 00:14:55;;;;;;;;;;;5.90;88.50;;;;;;5020709;28;19963;-76
2022/04/21 00:17:21;;;;;;;;;;;5.90;88.40;;;;;;5020183;28;19913;-78
2022/04/21 00:19:46;;;;;;;;;;;6.00;87.70;;;;;;5037254;28;19920;-77
2022/04/21 00:24:56;;;;;;;;;;;6.00;88.50;;;;;;5036516;28;19966;-77
2022/04/21 00:27:22;;;;;;;;;;;5.90;89.40;;;;;;5037083;28;19956;-76
2022/04/21 00:29:48;;;;;;;;;;;6.10;90.00;;;;;;5036880;28;19912;-77
2022/04/21 00:32:13;;;;;;;;;;;5.80;89.30;;;;;;5019869;28;19913;-78
2022/04/21 00:34:39;;;;;;;;;;;6.00;88.90;;;;;;5020247;28;19916;-77
2022/04/21 00:37:05;;;;;;;;;;;5.70;88.20;;;;;;5037133;28;19917;-77
2022/04/21 00:39:31;;;;;;;;;;;5.60;88.50;;;;;;5026083;28;19917;-77
2022/04/21 00:42:00;;;;;;;;;;;5.80;88.50;;;;;;5027206;28;19920;-74
2022/04/21 00:44:26;;;;;;;;;;;6.00;88.90;;;;;;5048483;28;19938;-75
2022/04/21 00:46:55;;;;;;;;;;;5.40;89.50;;;;;;5028894;28;19970;-77
2022/04/21 00:49:21;;;;;;;;;;;5.40;88.80;;;;;;5036512;28;19923;-76
2022/04/21 00:51:48;;;;;;;;;;;5.40;90.20;;;;;;5033435;28;19917;-77
2022/04/21 00:54:14;;;;;;;;;;;5.40;90.80;;;;;;5019056;28;19966;-77
2022/04/21 00:56:41;;;;;;;;;;;5.30;90.20;;;;;;5036691;28;19917;-76
2022/04/21 00:59:07;;;;;;;;;;;5.50;90.70;;;;;;5036731;28;19982;-77
2022/04/21 01:04:18;;;;;;;;;;;5.60;90.90;;;;;;5036400;28;20011;-78
2022/04/21 01:06:45;;;;;;;;;;;5.60;91.30;;;;;;5036187;28;20366;-77
2022/04/21 01:09:11;;;;;;;;;;;5.60;91.10;;;;;;5036616;28;19917;-78
2022/04/21 01:11:37;;;;;;;;;;;5.70;90.70;;;;;;5020087;28;19999;-77
2022/04/21 01:14:03;;;;;;;;;;;5.60;90.80;;;;;;5035435;28;19956;-77
2022/04/21 01:16:28;;;;;;;;;;;5.70;89.90;;;;;;5019766;28;19912;-77
2022/04/21 01:18:56;;;;;;;;;;;5.90;90.20;;;;;;5019657;28;20015;-77
2022/04/21 01:21:21;;;;;;;;;;;6.00;90.60;;;;;;5035901;28;19963;-77
2022/04/21 01:23:47;;;;;;;;;;;5.80;90.40;;;;;;5019001;28;19955;-76
2022/04/21 01:26:14;;;;;;;;;;;5.70;90.50;;;;;;5035754;28;19912;-77
2022/04/21 01:28:40;;;;;;;;;;;5.50;90.50;;;;;;5036296;28;20013;-76
2022/04/21 01:31:06;;;;;;;;;;;5.40;90.40;;;;;;5019679;28;20003;-76
2022/04/21 01:33:32;;;;;;;;;;;5.30;90.40;;;;;;5018948;28;20016;-77
2022/04/21 01:35:57;;;;;;;;;;;5.30;90.90;;;;;;5019759;28;19986;-77
2022/04/21 01:41:11;;;;;;;;;;;5.40;91.30;;;;;;5036154;28;19924;-76
2022/04/21 01:43:37;;;;;;;;;;;5.30;91.20;;;;;;5035619;28;19921;-77
2022/04/21 01:46:03;;;;;;;;;;;5.40;91.40;;;;;;5035824;28;19924;-77
2022/04/21 01:48:29;;;;;;;;;;;5.40;91.80;;;;;;5019333;28;19917;-77
2022/04/21 01:50:54;;;;;;;;;;;5.40;92.10;;;;;;5032500;28;19917;-77
2022/04/21 01:53:20;;;;;;;;;;;5.70;91.90;;;;;;5019600;28;19924;-76
2022/04/21 01:55:49;;;;;;;;;;;5.60;92.10;;;;;;5020690;28;19967;-76
2022/04/21 01:58:14;;;;;;;;;;;5.70;91.90;;;;;;5026479;28;20255;-76
2022/04/21 02:00:40;;;;;;;;;;;5.60;91.80;;;;;;5046882;28;19924;-76
2022/04/21 02:03:06;;;;;;;;;;;5.90;91.80;;;;;;5050758;28;19927;-73
2022/04/21 02:05:32;;;;;;;;;;;5.60;91.60;;;;;;5048188;28;19920;-78
2022/04/21 02:07:58;;;;;;;;;;;5.70;91.70;;;;;;5039783;28;19923;-76
2022/04/21 02:10:23;;;;;;;;;;;5.50;90.60;;;;;;5023297;28;19999;-78
2022/04/21 02:12:49;;;;;;;;;;;5.50;90.90;;;;;;5022227;28;20285;-76
2022/04/21 02:15:17;;;;;;;;;;;5.50;90.70;;;;;;5039279;28;19916;-77
2022/04/21 02:17:43;;;;;;;;;;;5.50;90.80;;;;;;5022703;28;19967;-76
2022/04/21 02:20:10;;;;;;;;;;;5.80;90.60;;;;;;5039467;28;19912;-78
2022/04/21 02:22:36;;;;;;;;;;;5.50;90.50;;;;;;5039260;28;20351;-77
2022/04/21 02:25:06;;;;;;;;;;;5.50;91.10;;;;;;5022616;28;19962;-77
2022/04/21 02:27:32;;;;;;;;;;;5.40;90.90;;;;;;5022741;28;20206;-77
2022/04/21 02:29:58;;;;;;;;;;;5.40;91.10;;;;;;5039315;28;20017;-77
2022/04/21 02:32:23;;;;;;;;;;;5.40;91.10;;;;;;5038390;28;19955;-77
2022/04/21 02:34:49;;;;;;;;;;;5.40;90.90;;;;;;5022221;28;19916;-77
2022/04/21 02:37:15;;;;;;;;;;;5.40;91.40;;;;;;5022106;28;20351;-78
2022/04/21 02:39:40;;;;;;;;;;;5.50;91.00;;;;;;5021688;28;19913;-76
2022/04/21 02:42:06;;;;;;;;;;;5.50;90.20;;;;;;5038406;28;19916;-77
2022/04/21 02:44:31;;;;;;;;;;;5.50;90.90;;;;;;5037996;28;19912;-76
2022/04/21 02:46:58;;;;;;;;;;;5.40;90.90;;;;;;5021817;28;19913;-76
2022/04/21 02:49:24;;;;;;;;;;;5.40;90.40;;;;;;5038249;28;19916;-76
2022/04/21 02:51:49;;;;;;;;;;;5.40;90.40;;;;;;5018564;28;20263;-76
2022/04/21 02:59:43;;;;;;;;;;;5.60;91.20;;;;;;5038232;28;19967;-76
2022/04/21 03:02:09;;;;;;;;;;;5.50;91.40;;;;;;5021236;28;19956;-77
2022/04/21 03:04:35;;;;;;;;;;;5.50;91.10;;;;;;5020991;28;19912;-77
2022/04/21 03:07:00;;;;;;;;;;;5.70;90.90;;;;;;5021174;28;20333;-78
2022/04/21 03:09:26;;;;;;;;;;;5.60;91.10;;;;;;5021903;28;19916;-77
2022/04/21 03:11:51;;;;;;;;;;;5.50;91.10;;;;;;5041829;28;19919;-76
2022/04/21 03:14:19;;;;;;;;;;;5.50;91.40;;;;;;5027854;28;20385;-74
2022/04/21 03:16:45;;;;;;;;;;;5.60;90.80;;;;;;5031292;28;19986;-73
2022/04/21 03:19:11;;;;;;;;;;;5.50;91.10;;;;;;5043199;28;19928;-76
2022/04/21 03:24:21;;;;;;;;;;;5.90;91.00;;;;;;5038033;28;20274;-76
2022/04/21 03:26:51;;;;;;;;;;;5.60;90.50;;;;;;5020957;28;19924;-77
2022/04/21 03:29:16;;;;;;;;;;;5.60;90.50;;;;;;5037995;28;20364;-77
2022/04/21 03:31:43;;;;;;;;;;;5.60;90.40;;;;;;5020829;28;20059;-77
2022/04/21 03:34:12;;;;;;;;;;;6.00;90.30;;;;;;5039298;28;19917;-78
2022/04/21 03:36:39;;;;;;;;;;;5.70;90.10;;;;;;5020787;28;19962;-76
2022/04/21 03:39:04;;;;;;;;;;;6.00;89.70;;;;;;5020839;28;20416;-75
2022/04/21 03:41:30;;;;;;;;;;;6.20;90.20;;;;;;5020977;28;19920;-75
2022/04/21 03:43:56;;;;;;;;;;;5.80;89.90;;;;;;5037395;28;19916;-75
2022/04/21 03:46:21;;;;;;;;;;;5.90;89.70;;;;;;5020426;28;20592;-75
2022/04/21 03:48:47;;;;;;;;;;;5.70;89.70;;;;;;5037130;28;19978;-75
2022/04/21 03:51:13;;;;;;;;;;;5.70;90.00;;;;;;5020384;28;20271;-75
2022/04/21 03:53:38;;;;;;;;;;;5.80;90.00;;;;;;5036593;28;19917;-77
2022/04/21 03:56:04;;;;;;;;;;;5.80;90.00;;;;;;5020201;28;20030;-76
2022/04/21 03:58:29;;;;;;;;;;;5.70;89.30;;;;;;5036798;28;19919;-77
2022/04/21 04:00:55;;;;;;;;;;;5.50;89.80;;;;;;5037217;28;20002;-76
2022/04/21 04:03:20;;;;;;;;;;;5.80;89.70;;;;;;5036236;28;19962;-76
2022/04/21 04:05:46;;;;;;;;;;;5.70;89.40;;;;;;5019976;28;19917;-76
2022/04/21 04:10:56;;;;;;;;;;;6.00;89.40;;;;;;5037093;28;20054;-76
2022/04/21 04:13:23;;;;;;;;;;;5.60;88.90;;;;;;5036223;28;20015;-76
2022/04/21 04:15:51;;;;;;;;;;;5.60;88.80;;;;;;5035927;28;19917;-75
2022/04/21 04:21:46;;;;;;;;;;;5.50;88.80;;;;;;5054160;28;20033;-74
2022/04/21 04:31:15;;;;;;;;;;;5.50;88.10;;;;;;4994100;28;19913;-74
2022/04/21 04:33:41;;;;;;;;;;;5.60;87.50;;;;;;5015847;28;19948;-74
2022/04/21 04:36:10;;;;;;;;;;;5.50;87.60;;;;;;5035867;28;19974;-73
2022/04/21 04:38:36;;;;;;;;;;;5.60;87.90;;;;;;5019890;28;20328;-73
2022/04/21 04:42:16;;;;;;;;;;;5.80;87.50;;;;;;5036284;28;20398;-74
2022/04/21 04:43:47;;;;;;;;;;;5.80;87.40;;;;;;5038239;28;19936;-74
2022/04/21 04:48:57;;;;;;;;;;;5.40;87.10;;;;;;5035412;28;19994;-71
2022/04/21 04:51:23;;;;;;;;;;;5.30;87.10;;;;;;5019669;28;20339;-72
2022/04/21 04:53:49;;;;;;;;;;;5.30;87.30;;;;;;5018374;28;19920;-74
2022/04/21 04:56:14;;;;;;;;;;;5.30;87.20;;;;;;5035441;28;19917;-73
2022/04/21 04:58:40;;;;;;;;;;;5.20;87.60;;;;;;5017789;28;20335;-73
2022/04/21 05:01:06;;;;;;;;;;;5.20;87.30;;;;;;5018607;28;19981;-73
2022/04/21 05:03:32;;;;;;;;;;;5.30;87.70;;;;;;5018866;28;19920;-72
2022/04/21 05:05:58;;;;;;;;;;;5.10;87.90;;;;;;5035720;28;19912;-73
2022/04/21 05:08:23;;;;;;;;;;;5.50;88.00;;;;;;5035043;28;20381;-73
2022/04/21 05:10:53;;;;;;;;;;;5.10;88.10;;;;;;5019337;28;19936;-73
2022/04/21 05:13:18;;;;;;;;;;;5.10;88.90;;;;;;5035697;28;19917;-74
2022/04/21 05:15:44;;;;;;;;;;;5.10;88.80;;;;;;5019230;28;20385;-73
2022/04/21 05:18:10;;;;;;;;;;;5.10;89.00;;;;;;5035565;28;19917;-72
2022/04/21 05:20:36;;;;;;;;;;;5.10;88.90;;;;;;5018950;28;19928;-71
2022/04/21 05:23:05;;;;;;;;;;;5.20;89.70;;;;;;5035319;28;19912;-72
2022/04/21 05:25:33;;;;;;;;;;;5.30;90.00;;;;;;5034800;28;20369;-73
2022/04/21 05:27:59;;;;;;;;;;;5.50;90.10;;;;;;5034808;28;19912;-73
2022/04/21 05:33:09;;;;;;;;;;;5.80;90.00;;;;;;5035396;28;19963;-73
2022/04/21 05:35:35;;;;;;;;;;;6.10;89.00;;;;;;5035609;28;19917;-73
2022/04/21 05:38:01;;;;;;;;;;;6.20;88.20;;;;;;5035370;28;20314;-71
2022/04/21 05:40:27;;;;;;;;;;;6.50;87.40;;;;;;5035398;28;20381;-72
2022/04/21 05:42:54;;;;;;;;;;;6.60;86.60;;;;;;5019018;28;19917;-73
2022/04/21 05:45:20;;;;;;;;;;;6.80;86.40;;;;;;5019077;28;19963;-74
2022/04/21 05:47:47;;;;;;;;;;;7.00;85.70;;;;;;5034836;28;19959;-74
2022/04/21 05:50:15;;;;;;;;;;;7.10;84.90;;;;;;5018104;28;19919;-73
2022/04/21 05:52:43;;;;;;;;;;;7.20;84.40;;;;;;5034817;28;19923;-73
2022/04/21 05:55:09;;;;;;;;;;;7.40;84.20;;;;;;5034788;28;19928;-72
2022/04/21 05:57:38;;;;;;;;;;;7.60;83.90;;;;;;5018601;28;20019;-73
2022/04/21 06:00:04;;;;;;;;;;;7.80;83.00;;;;;;5035067;28;19978;-73
2022/04/21 06:02:29;;;;;;;;;;;7.90;82.10;;;;;;5035222;28;19917;-72
2022/04/21 06:04:59;;;;;;;;;;;7.90;80.80;;;;;;5018849;28;20007;-72
2022/04/21 06:07:24;;;;;;;;;;;8.10;81.30;;;;;;5018320;28;19916;-72
2022/04/21 06:09:50;;;;;;;;;;;8.20;80.90;;;;;;5034778;28;19924;-72
2022/04/21 06:12:17;;;;;;;;;;;8.30;80.00;;;;;;5034853;28;19979;-73
2022/04/21 06:14:44;;;;;;;;;;;8.60;79.40;;;;;;5018804;28;20010;-71
2022/04/21 06:17:10;;;;;;;;;;;8.60;79.00;;;;;;5018975;28;20063;-72
2022/04/21 06:19:36;;;;;;;;;;;8.70;78.80;;;;;;5017584;28;20315;-73
2022/04/21 06:22:02;;;;;;;;;;;8.90;78.80;;;;;;5018201;28;19913;-71
2022/04/21 06:24:27;;;;;;;;;;;9.00;78.10;;;;;;5018266;28;19919;-72
2022/04/21 06:26:53;;;;;;;;;;;9.20;77.30;;;;;;5018237;28;19935;-72
2022/04/21 06:29:18;;;;;;;;;;;9.20;77.70;;;;;;5052452;28;19916;-73
2022/04/21 06:31:45;;;;;;;;;;;9.30;76.90;;;;;;5018626;28;19916;-73
2022/04/21 06:34:11;;;;;;;;;;;9.50;76.60;;;;;;5018680;28;19917;-77
2022/04/21 06:36:36;;;;;;;;;;;9.70;76.40;;;;;;5034459;28;19968;-74
2022/04/21 06:39:03;;;;;;;;;;;9.80;75.50;;;;;;5020850;28;19943;-77
2022/04/21 06:41:29;;;;;;;;;;;9.90;75.20;;;;;;5021762;28;19962;-74
2022/04/21 06:49:29;;;;;;;;;;;10.30;73.10;;;;;;5023546;28;19967;-73
2022/04/21 06:51:57;;;;;;;;;;;10.50;74.10;;;;;;5002060;28;20011;-71
2022/04/21 06:54:22;;;;;;;;;;;10.70;71.60;;;;;;5018811;28;19986;-72
2022/04/21 06:56:48;;;;;;;;;;;10.60;69.90;;;;;;5018393;28;19963;-72
2022/04/21 06:59:17;;;;;;;;;;;10.70;69.50;;;;;;5037228;28;20059;-72
2022/04/21 07:01:46;;;;;;;;;;;10.90;69.40;;;;;;5038371;28;20062;-72
2022/04/21 07:04:13;;;;;;;;;;;11.20;68.70;;;;;;5037961;28;19923;-74
2022/04/21 07:10:04;;;;;;;;;;;11.30;67.40;;;;;;5048221;28;19923;-72
2022/04/21 07:12:54;;;;;;;;;;;11.50;67.00;;;;;;4999744;28;20325;-75
2022/04/21 07:28:45;;;;;;;;;;;12.10;61.20;;;;;;4997014;28;19929;-79
2022/04/21 07:31:11;;;;;;;;;;;12.20;59.70;;;;;;5016842;28;19924;-77
2022/04/21 07:33:37;;;;;;;;;;;12.40;58.30;;;;;;5016757;28;19913;-78
2022/04/21 07:36:03;;;;;;;;;;;12.40;59.70;;;;;;5000077;28;19917;-78
2022/04/21 07:38:29;;;;;;;;;;;12.50;58.80;;;;;;5000333;28;19960;-78
2022/04/21 07:40:54;;;;;;;;;;;12.80;58.10;;;;;;5016535;28;19913;-78
2022/04/21 07:43:20;;;;;;;;;;;12.90;56.30;;;;;;5000543;28;19917;-78
2022/04/21 07:45:49;;;;;;;;;;;13.10;58.40;;;;;;4999930;28;19917;-78
2022/04/21 07:48:15;;;;;;;;;;;13.00;56.00;;;;;;5000107;28;19913;-78
2022/04/21 07:50:40;;;;;;;;;;;13.00;54.80;;;;;;4999514;28;19917;-78
2022/04/21 07:53:15;;;;;;;;;;;13.10;55.40;;;;;;5000014;28;20326;-78
2022/04/21 07:55:44;;;;;;;;;;;13.20;55.10;;;;;;5015975;28;20007;-78
2022/04/21 07:58:10;;;;;;;;;;;13.30;53.20;;;;;;5016374;28;19980;-79
2022/04/21 08:00:38;;;;;;;;;;;13.40;54.20;;;;;;5030883;28;20350;-78
2022/04/21 08:03:05;;;;;;;;;;;13.50;54.20;;;;;;5035453;28;19917;-78
2022/04/21 08:05:31;;;;;;;;;;;13.30;53.80;;;;;;5037241;28;19923;-78
2022/04/21 08:07:57;;;;;;;;;;;13.50;53.90;;;;;;5036906;28;19982;-77
2022/04/21 08:10:24;;;;;;;;;;;13.70;54.50;;;;;;5036530;28;20274;-77
2022/04/21 08:12:51;;;;;;;;;;;13.60;53.90;;;;;;5020471;28;19912;-78
2022/04/21 08:15:30;;;;;;;;;;;13.70;54.10;;;;;;5020024;28;19920;-78
2022/04/21 08:17:56;;;;;;;;;;;13.90;52.60;;;;;;5036390;28;19920;-78
2022/04/21 08:20:23;;;;;;;;;;;14.00;53.50;;;;;;5019257;28;19926;-78
2022/04/21 08:22:49;;;;;;;;;;;14.20;53.00;;;;;;5020408;28;19974;-78
2022/04/21 08:33:27;;;;;;;;;;;14.60;51.40;;;;;;5052402;28;19935;-74
2022/04/21 08:35:58;;;;;;;;;;;14.60;51.00;;;;;;5036979;28;19908;-74
2022/04/21 08:38:24;;;;;;;;;;;15.00;52.70;;;;;;5045738;28;19919;-77
2022/04/21 08:40:50;;;;;;;;;;;15.10;52.30;;;;;;5035585;28;20006;-77
2022/04/21 08:43:15;;;;;;;;;;;15.10;50.70;;;;;;5036107;28;19916;-78
2022/04/21 08:45:46;;;;;;;;;;;14.90;50.70;;;;;;5020317;28;19924;-77
2022/04/21 08:48:12;;;;;;;;;;;15.10;51.00;;;;;;5019168;28;20373;-77
2022/04/21 08:50:39;;;;;;;;;;;15.10;50.40;;;;;;5036243;28;19967;-77
2022/04/21 08:53:15;;;;;;;;;;;15.30;52.00;;;;;;5035697;28;19970;-78
2022/04/21 08:55:50;;;;;;;;;;;;;;;;;;;;;
2022/04/21 08:58:16;;;;;;;;;;;15.00;51.70;;;;;;5035652;28;19916;-77
2022/04/21 09:00:43;;;;;;;;;;;15.20;50.90;;;;;;5035050;28;20259;-77
2022/04/21 09:03:10;;;;;;;;;;;14.90;51.00;;;;;;5035752;28;19920;-77
2022/04/21 09:05:35;;;;;;;;;;;15.00;51.50;;;;;;5019513;28;19913;-77
2022/04/21 09:08:04;;;;;;;;;;;15.10;52.20;;;;;;5019536;28;19913;-76
2022/04/21 09:10:32;;;;;;;;;;;14.90;49.70;;;;;;5018653;28;19913;-77
2022/04/21 09:13:02;;;;;;;;;;;15.10;50.60;;;;;;5019608;28;20016;-76
2022/04/21 09:15:32;;;;;;;;;;;15.20;51.10;;;;;;5035711;28;20254;-77
2022/04/21 09:18:08;;;;;;;;;;;15.10;50.20;;;;;;5035703;28;20297;-78
2022/04/21 09:20:35;;;;;;;;;;;15.10;50.60;;;;;;5035477;28;19995;-77
2022/04/21 09:23:04;;;;;;;;;;;15.20;50.10;;;;;;5019200;28;19917;-77
2022/04/21 09:25:31;;;;;;;;;;;15.30;50.10;;;;;;5018917;28;20423;-77
2022/04/21 09:28:02;;;;;;;;;;;15.30;50.60;;;;;;5019155;28;19917;-77
2022/04/21 09:30:32;;;;;;;;;;;15.40;51.40;;;;;;5018510;28;19920;-77
2022/04/21 09:33:00;;;;;;;;;;;15.60;50.50;;;;;;5019033;28;19923;-76
2022/04/21 09:35:27;;;;;;;;;;;15.90;50.60;;;;;;5018927;28;20290;-77
2022/04/21 09:37:54;;;;;;;;;;;15.90;51.10;;;;;;5035416;28;19966;-77
2022/04/21 09:40:24;;;;;;;;;;;15.80;49.40;;;;;;5034602;28;20351;-76
2022/04/21 09:43:00;;;;;;;;;;;16.00;50.00;;;;;;5018965;28;20346;-77
2022/04/21 09:48:22;;;;;;;;;;;16.10;49.10;;;;;;5052464;28;19917;-77
2022/04/21 09:50:51;;;;;;;;;;;15.70;49.30;;;;;;5035749;28;20381;-78
2022/04/21 09:53:25;;;;;;;;;;;15.80;50.30;;;;;;5019166;28;20381;-77
2022/04/21 09:55:55;;;;;;;;;;;16.00;49.70;;;;;;5034994;28;19912;-77
2022/04/21 09:58:24;;;;;;;;;;;15.80;49.70;;;;;;5029072;28;20355;-76
2022/04/21 10:00:52;;;;;;;;;;;15.90;50.10;;;;;;5046593;28;19971;-74
2022/04/21 10:03:19;;;;;;;;;;;15.80;50.00;;;;;;5046390;28;19917;-73
2022/04/21 10:05:45;;;;;;;;;;;15.90;50.30;;;;;;5026939;28;20012;-77
2022/04/21 10:08:11;;;;;;;;;;;16.00;51.20;;;;;;5018446;28;19960;-78
2022/04/21 10:10:40;;;;;;;;;;;16.10;48.10;;;;;;5035145;28;20400;-77
2022/04/21 10:13:06;;;;;;;;;;;16.00;49.40;;;;;;5020204;28;19916;-78
2022/04/21 10:15:31;;;;;;;;;;;16.20;50.70;;;;;;5039167;28;20295;-77
2022/04/21 10:17:57;;;;;;;;;;;16.30;49.60;;;;;;5022318;28;19964;-77
2022/04/21 10:20:24;;;;;;;;;;;16.50;50.30;;;;;;5039054;28;19913;-78
2022/04/21 10:22:50;;;;;;;;;;;16.30;50.80;;;;;;5022476;28;19917;-77
2022/04/21 10:25:16;;;;;;;;;;;16.30;48.40;;;;;;5022636;28;19965;-77
2022/04/21 10:27:43;;;;;;;;;;;16.40;49.90;;;;;;5021947;28;19958;-78
2022/04/21 10:30:13;;;;;;;;;;;16.40;49.90;;;;;;5021969;28;19912;-76
2022/04/21 10:32:46;;;;;;;;;;;16.60;50.00;;;;;;5038515;28;19928;-76
2022/04/21 10:35:21;;;;;;;;;;;16.60;48.90;;;;;;5022684;28;19920;-77
2022/04/21 10:37:46;;;;;;;;;;;16.70;51.20;;;;;;5038735;28;19932;-76
2022/04/21 10:40:15;;;;;;;;;;;16.80;49.60;;;;;;5045635;28;20343;-77
2022/04/21 10:43:04;;;;;;;;;;;16.90;50.10;;;;;;5048051;28;19917;-76
2022/04/21 10:45:33;;;;;;;;;;;16.70;50.30;;;;;;5048823;28;19912;-77
2022/04/21 10:48:05;;;;;;;;;;;16.80;49.30;;;;;;5030605;28;19913;-76
2022/04/21 10:50:32;;;;;;;;;;;17.00;49.70;;;;;;5022549;28;19952;-76
2022/04/21 10:58:35;;;;;;;;;;;16.60;52.10;;;;;;5038729;28;19943;-78
2022/04/21 11:01:19;;;;;;;;;;;16.80;51.30;;;;;;5038131;28;19913;-78
2022/04/21 11:04:03;;;;;;;;;;;16.80;50.50;;;;;;5038276;28;19934;-79
2022/04/21 11:06:39;;;;;;;;;;;16.90;50.00;;;;;;5055779;28;20243;-79
2022/04/21 11:09:05;;;;;;;;;;;16.80;51.20;;;;;;5021260;28;19975;-77
2022/04/21 11:11:45;;;;;;;;;;;16.90;51.80;;;;;;5022084;28;19968;-77
2022/04/21 11:14:11;;;;;;;;;;;16.90;50.50;;;;;;5037724;28;19923;-78
2022/04/21 11:16:39;;;;;;;;;;;16.80;51.80;;;;;;5037485;28;19913;-78
2022/04/21 11:19:24;;;;;;;;;;;16.70;52.40;;;;;;5037892;28;19994;-77
2022/04/21 11:21:55;;;;;;;;;;;16.80;51.30;;;;;;5023733;28;19917;-76
2022/04/21 11:24:20;;;;;;;;;;;16.80;50.70;;;;;;5048783;28;19917;-77
2022/04/21 11:26:52;;;;;;;;;;;16.60;51.60;;;;;;5032798;28;19916;-76
2022/04/21 11:29:18;;;;;;;;;;;16.70;52.70;;;;;;5046407;28;20012;-79
2022/04/21 11:31:44;;;;;;;;;;;16.50;51.80;;;;;;5038403;28;19944;-79
2022/04/21 11:34:09;;;;;;;;;;;16.60;52.50;;;;;;5038229;28;19917;-78
2022/04/21 11:36:36;;;;;;;;;;;16.70;52.60;;;;;;5020948;28;19939;-78
2022/04/21 11:39:05;;;;;;;;;;;17.00;52.80;;;;;;5021125;28;19913;-79
2022/04/21 11:41:32;;;;;;;;;;;16.90;51.20;;;;;;5037407;28;19920;-77
2022/04/21 11:43:58;;;;;;;;;;;16.90;52.10;;;;;;5037549;28;20007;-78
2022/04/21 11:46:23;;;;;;;;;;;16.60;51.80;;;;;;5019878;28;19960;-78
2022/04/21 11:48:56;;;;;;;;;;;16.60;51.40;;;;;;5036777;28;19913;-77
2022/04/21 11:51:24;;;;;;;;;;;16.60;51.50;;;;;;5021245;28;19956;-79
2022/04/21 11:53:50;;;;;;;;;;;16.60;51.70;;;;;;5020645;28;20053;-78
2022/04/21 11:56:16;;;;;;;;;;;16.70;50.80;;;;;;5020482;28;19924;-78
2022/04/21 11:58:42;;;;;;;;;;;16.70;51.40;;;;;;5020395;28;19917;-78
2022/04/21 12:06:44;;;;;;;;;;;16.20;51.90;;;;;;5036553;28;19927;-76
2022/04/21 12:09:14;;;;;;;;;;;16.10;50.80;;;;;;5020405;28;19931;-77
2022/04/21 12:11:41;;;;;;;;;;;16.30;52.50;;;;;;5020234;28;20008;-77
2022/04/21 12:14:06;;;;;;;;;;;16.20;52.10;;;;;;5036491;28;19999;-78
2022/04/21 12:16:34;;;;;;;;;;;16.40;51.80;;;;;;5019868;28;19956;-77
2022/04/21 12:19:08;;;;;;;;;;;16.20;51.50;;;;;;5019725;28;19913;-75
2022/04/21 12:21:37;;;;;;;;;;;16.20;52.90;;;;;;5036531;28;20388;-77
2022/04/21 12:24:13;;;;;;;;;;;16.20;51.50;;;;;;5036476;28;20404;-77
2022/04/21 12:26:38;;;;;;;;;;;16.20;52.50;;;;;;5035979;28;19912;-76
2022/04/21 12:29:07;;;;;;;;;;;16.20;52.60;;;;;;5019159;28;19919;-78
2022/04/21 12:31:56;;;;;;;;;;;16.00;52.60;;;;;;5020009;28;19913;-78
2022/04/21 12:34:23;;;;;;;;;;;16.10;51.60;;;;;;5020048;28;20347;-77
2022/04/21 12:36:52;;;;;;;;;;;16.10;52.00;;;;;;5035008;28;19912;-77
2022/04/21 12:39:19;;;;;;;;;;;16.00;53.80;;;;;;5019628;28;19913;-77
2022/04/21 12:41:45;;;;;;;;;;;16.20;51.40;;;;;;5019963;28;19913;-78
2022/04/21 12:44:11;;;;;;;;;;;16.10;52.50;;;;;;5036023;28;19912;-78
2022/04/21 12:46:37;;;;;;;;;;;16.00;50.90;;;;;;5036008;28;19913;-76
2022/04/21 12:49:05;;;;;;;;;;;16.20;51.70;;;;;;5019904;28;19913;-76
2022/04/21 12:51:31;;;;;;;;;;;16.00;50.80;;;;;;5019511;28;20377;-76
2022/04/21 12:53:57;;;;;;;;;;;16.00;51.60;;;;;;5043125;28;20000;-76
2022/04/21 12:56:34;;;;;;;;;;;16.00;51.70;;;;;;5030060;28;19936;-76
2022/04/21 12:58:59;;;;;;;;;;;16.10;49.70;;;;;;5045249;28;19917;-76
2022/04/21 13:01:26;;;;;;;;;;;15.80;50.40;;;;;;5047295;28;19916;-74
2022/04/21 13:03:51;;;;;;;;;;;15.70;51.80;;;;;;5045059;28;19917;-74
2022/04/21 13:06:27;;;;;;;;;;;15.90;51.30;;;;;;5021338;28;19958;-77
2022/04/21 13:08:53;;;;;;;;;;;16.00;49.70;;;;;;5019516;28;20298;-77
2022/04/21 13:11:18;;;;;;;;;;;16.10;50.90;;;;;;5036097;28;19917;-77
2022/04/21 13:13:44;;;;;;;;;;;16.10;49.50;;;;;;5019399;28;19920;-77
2022/04/21 13:16:10;;;;;;;;;;;16.00;50.30;;;;;;5019233;28;19916;-77
2022/04/21 13:18:35;;;;;;;;;;;16.00;50.30;;;;;;5036068;28;20300;-76
2022/04/21 13:23:45;;;;;;;;;;;15.90;50.60;;;;;;5035701;28;20419;-77
2022/04/21 13:26:11;;;;;;;;;;;15.90;51.40;;;;;;5019259;28;20313;-77
2022/04/21 13:28:37;;;;;;;;;;;15.80;50.40;;;;;;5019221;28;19917;-76
2022/04/21 13:33:47;;;;;;;;;;;15.50;51.90;;;;;;5035631;28;20018;-77
2022/04/21 13:36:13;;;;;;;;;;;15.60;51.10;;;;;;5018814;28;19999;-77
2022/04/21 13:38:39;;;;;;;;;;;15.90;51.30;;;;;;5035616;28;19963;-77
2022/04/21 13:41:04;;;;;;;;;;;16.00;50.10;;;;;;5053209;28;20327;-76
2022/04/21 13:43:30;;;;;;;;;;;16.40;49.00;;;;;;5018608;28;19967;-77
2022/04/21 13:45:57;;;;;;;;;;;16.50;48.40;;;;;;5018667;28;19974;-77
2022/04/21 13:48:23;;;;;;;;;;;16.30;47.50;;;;;;5018059;28;20070;-74
2022/04/21 13:50:48;;;;;;;;;;;16.40;48.70;;;;;;5032038;28;19960;-77
2022/04/21 13:53:14;;;;;;;;;;;16.20;48.20;;;;;;5034664;28;19917;-77
2022/04/21 13:55:39;;;;;;;;;;;16.30;48.20;;;;;;5018584;28;20021;-75
2022/04/21 13:58:07;;;;;;;;;;;16.50;47.40;;;;;;5018647;28;20376;-77
2022/04/21 14:00:33;;;;;;;;;;;16.40;48.30;;;;;;5034970;28;20046;-77
2022/04/21 14:02:59;;;;;;;;;;;16.30;48.80;;;;;;5035300;28;19991;-76
2022/04/21 14:05:24;;;;;;;;;;;16.20;50.20;;;;;;5017903;28;19913;-77
2022/04/21 14:07:50;;;;;;;;;;;16.20;48.80;;;;;;5018410;28;19912;-76
2022/04/21 14:10:16;;;;;;;;;;;15.90;49.50;;;;;;5018450;28;19916;-76
2022/04/21 14:12:42;;;;;;;;;;;15.70;49.10;;;;;;5018275;28;19912;-77
2022/04/21 14:15:07;;;;;;;;;;;15.80;50.00;;;;;;5018139;28;19916;-76
2022/04/21 14:17:33;;;;;;;;;;;16.00;50.60;;;;;;5034480;28;20275;-76
2022/04/21 14:19:59;;;;;;;;;;;16.00;48.60;;;;;;5018310;28;19923;-76
2022/04/21 14:22:27;;;;;;;;;;;16.10;48.30;;;;;;5018672;28;19912;-76
2022/04/21 14:24:52;;;;;;;;;;;16.00;47.60;;;;;;5019228;28;20244;-77
2022/04/21 14:27:18;;;;;;;;;;;15.80;49.20;;;;;;5045541;28;19936;-75
2022/04/21 14:29:45;;;;;;;;;;;15.70;49.00;;;;;;5044564;28;19917;-74
2022/04/21 14:32:11;;;;;;;;;;;15.40;49.20;;;;;;5043963;28;19916;-74
2022/04/21 14:34:40;;;;;;;;;;;15.70;48.60;;;;;;5043350;28;20262;-74
2022/04/21 14:37:09;;;;;;;;;;;15.80;49.20;;;;;;5018824;28;19983;-76
2022/04/21 14:45:09;;;;;;;;;;;16.10;48.30;;;;;;5034327;28;19917;-77
2022/04/21 14:47:35;;;;;;;;;;;15.90;48.20;;;;;;5018175;28;20350;-78
2022/04/21 14:50:05;;;;;;;;;;;15.90;49.00;;;;;;5018385;28;19927;-76
2022/04/21 14:52:34;;;;;;;;;;;16.00;49.00;;;;;;5034611;28;19916;-76
2022/04/21 14:54:59;;;;;;;;;;;15.70;48.80;;;;;;5017920;28;19916;-76
2022/04/21 14:57:25;;;;;;;;;;;16.00;49.60;;;;;;5018092;28;19919;-77
2022/04/21 14:59:51;;;;;;;;;;;16.20;48.50;;;;;;5020945;28;19913;-77
2022/04/21 15:02:16;;;;;;;;;;;16.80;48.30;;;;;;5038560;28;19920;-77
2022/04/21 15:04:42;;;;;;;;;;;16.70;47.90;;;;;;5021719;28;19924;-77
2022/04/21 15:07:08;;;;;;;;;;;16.60;48.10;;;;;;5021296;28;20385;-77
2022/04/21 15:09:34;;;;;;;;;;;16.80;48.40;;;;;;5021233;28;19919;-77
2022/04/21 15:11:59;;;;;;;;;;;17.30;46.80;;;;;;5021545;28;19920;-77
2022/04/21 15:14:25;;;;;;;;;;;17.30;46.60;;;;;;5037922;28;19912;-78
2022/04/21 15:16:52;;;;;;;;;;;17.00;46.70;;;;;;5021093;28;20208;-78
2022/04/21 15:19:18;;;;;;;;;;;16.90;47.60;;;;;;5021714;28;19924;-76
2022/04/21 15:21:44;;;;;;;;;;;16.50;49.50;;;;;;5021142;28;19912;-77
2022/04/21 15:24:15;;;;;;;;;;;16.10;50.30;;;;;;5037311;28;19947;-77
2022/04/21 15:26:41;;;;;;;;;;;15.70;51.40;;;;;;5021311;28;19974;-80
2022/04/21 15:29:10;;;;;;;;;;;15.60;52.20;;;;;;5021926;28;19958;-78
2022/04/21 15:31:54;;;;;;;;;;;15.50;52.10;;;;;;5055233;28;20117;-77
2022/04/21 15:34:20;;;;;;;;;;;15.40;53.00;;;;;;5017703;28;19941;-77
2022/04/21 15:36:48;;;;;;;;;;;15.60;52.10;;;;;;5018045;28;19925;-79
2022/04/21 15:39:14;;;;;;;;;;;16.00;51.10;;;;;;5001407;28;19917;-78
2022/04/21 15:41:54;;;;;;;;;;;16.00;51.00;;;;;;4998967;28;19919;-77
2022/04/21 15:44:29;;;;;;;;;;;15.80;51.80;;;;;;4997814;28;19913;-77
2022/04/21 15:47:01;;;;;;;;;;;15.70;51.10;;;;;;5031392;28;19913;-82
2022/04/21 15:49:26;;;;;;;;;;;16.00;50.80;;;;;;5035633;28;20010;-76
2022/04/21 15:51:52;;;;;;;;;;;16.10;51.40;;;;;;5016588;28;19971;-78
2022/04/21 16:00:30;;;;;;;;;;;16.30;51.00;;;;;;5051769;28;19971;-77